Khanewal Weather



Khanewal's Current Weather

Temprature 29o dust

dust

Rain: 0 %

Min Temprature29o
Max Temprature29o
Humidity37
Wind Speed7.2 m/h
Sun Rise06:15:46
Sun Set17:39:00
Current Time: 18-Oct-2019 16:26:33
Lat/Lon: 30.3, 71.93




Khanewal's Geo Location



Khanewal's Weather Forecast

Time Overall Temp Min Temp Max Temp Humidity Wind Speed Rain
18-Oct-2019 (Fri)
17:00:00 clear sky 28.520 28.520 32.950 19 4.39 m/h 0 %
20:00:00 clear sky 24.030 24.030 27.350 36 6.83 m/h 0 %
23:00:00 clear sky 22.110 22.110 24.328 40 7.23 m/h 0 %
19-Oct-2019 (Sat)
02:00:00 scattered clouds 22.300 22.300 23.408 45 3.23 m/h 0 %
05:00:00 scattered clouds 22.653 22.653 22.653 48 4.5 m/h 0 %
08:00:00 clear sky 25.311 25.311 25.311 39 3.44 m/h 0 %
11:00:00 clear sky 31.050 31.050 31.050 27 5.23 m/h 0 %
14:00:00 clear sky 33.566 33.566 33.566 21 4.17 m/h 0 %
17:00:00 clear sky 32.232 32.232 32.232 21 4.1 m/h 0 %
20:00:00 clear sky 28.418 28.418 28.418 26 3.09 m/h 0 %
23:00:00 clear sky 26.887 26.887 26.887 27 2.63 m/h 0 %
20-Oct-2019 (Sun)
02:00:00 clear sky 24.037 24.037 24.037 33 2.23 m/h 0 %
05:00:00 clear sky 23.744 23.744 23.744 34 2.75 m/h 0 %
08:00:00 overcast clouds 25.912 25.912 25.912 29 2.63 m/h 0 %
11:00:00 broken clouds 32.520 32.520 32.520 18 1.04 m/h 0 %
14:00:00 clear sky 34.982 34.982 34.982 14 2.73 m/h 0 %
17:00:00 clear sky 33.118 33.118 33.118 16 2.54 m/h 0 %
20:00:00 clear sky 28.602 28.602 28.602 20 3.07 m/h 0 %
23:00:00 clear sky 25.767 25.767 25.767 24 3.21 m/h 0 %
21-Oct-2019 (Mon)
02:00:00 clear sky 23.680 23.680 23.680 28 2.16 m/h 0 %
05:00:00 clear sky 22.751 22.751 22.751 31 2.56 m/h 0 %
08:00:00 clear sky 25.679 25.679 25.679 25 1.9 m/h 0 %
11:00:00 clear sky 31.847 31.847 31.847 16 1.62 m/h 0 %
14:00:00 clear sky 34.875 34.875 34.875 12 2.58 m/h 0 %
17:00:00 clear sky 32.724 32.724 32.724 15 2.51 m/h 0 %
20:00:00 clear sky 27.354 27.354 27.354 19 2.01 m/h 0 %
23:00:00 clear sky 25.080 25.080 25.080 22 2.3 m/h 0 %
22-Oct-2019 (Tue)
02:00:00 clear sky 23.606 23.606 23.606 24 1.99 m/h 0 %
05:00:00 clear sky 21.869 21.869 21.869 27 1.53 m/h 0 %
08:00:00 clear sky 25.412 25.412 25.412 22 2.43 m/h 0 %
11:00:00 clear sky 31.619 31.619 31.619 15 2.03 m/h 0 %
14:00:00 clear sky 34.649 34.649 34.649 11 1.84 m/h 0 %
17:00:00 clear sky 31.712 31.712 31.712 17 1.02 m/h 0 %
20:00:00 few clouds 27.050 27.050 27.050 18 1.84 m/h 0 %
23:00:00 scattered clouds 25.819 25.819 25.819 18 2.19 m/h 0 %
23-Oct-2019 (Wed)
02:00:00 broken clouds 23.046 23.046 23.046 21 2.23 m/h 0 %
05:00:00 scattered clouds 21.927 21.927 21.927 21 2.63 m/h 0 %
08:00:00 clear sky 25.679 25.679 25.679 17 0.37 m/h 0 %
11:00:00 clear sky 32.295 32.295 32.295 12 3.34 m/h 0 %
14:00:00 clear sky 34.769 34.769 34.769 10 3.05 m/h 0 %

Famous Cities (61)